Licking, Missouri
Current Conditions -  °F | °C
As of 5:58 AM on Tuesday 27 Jan 2015 (Local Time) from KTBN Reporting Station
Clear Clear  
Wind Chill: 32°   Ceiling: Unl
Heat Index: 36°   Visibility: 10mi
Dew Point: 34°   Wind: 6mph
Humidity: 93%   Direction: 310°NW
Pressure: 30.05"   Gusts: NA
Location:  37.5°N, 91.86°W
Report Text: KTBN 271158Z AUTO 31005KT 10SM CLR 02/01 A3005 RMK AO2 SLP184 T00240013 10069 20024 52019
Loading
Personal Weather Stations






























Interactive Weather Map New forecast layout! Learn more

10-Day Weather Forecast

Advertisements
Track Severe Weather on mobile